sensor_id;sensor_type;location;lat;lon;timestamp;P1;durP1;ratioP1;P2;durP2;ratioP2
40471;SDS011;26174;42.908;23.800;2022-09-30T00:01:30;0.80;;;0.80;;
40471;SDS011;26174;42.908;23.800;2022-09-30T00:03:57;1.00;;;0.75;;
40471;SDS011;26174;42.908;23.800;2022-09-30T00:06:23;0.25;;;0.15;;
40471;SDS011;26174;42.908;23.800;2022-09-30T00:08:50;0.40;;;0.40;;
40471;SDS011;26174;42.908;23.800;2022-09-30T00:11:20;0.20;;;0.20;;
40471;SDS011;26174;42.908;23.800;2022-09-30T00:13:50;0.57;;;0.45;;
40471;SDS011;26174;42.908;23.800;2022-09-30T00:16:17;0.47;;;0.47;;
40471;SDS011;26174;42.908;23.800;2022-09-30T00:18:45;1.23;;;0.70;;
40471;SDS011;26174;42.908;23.800;2022-09-30T00:21:12;29.55;;;1.15;;
40471;SDS011;26174;42.908;23.800;2022-09-30T00:23:40;4.13;;;0.57;;
40471;SDS011;26174;42.908;23.800;2022-09-30T00:26:16;0.70;;;0.50;;
40471;SDS011;26174;42.908;23.800;2022-09-30T00:28:43;0.73;;;0.47;;
40471;SDS011;26174;42.908;23.800;2022-09-30T00:31:11;0.57;;;0.35;;
40471;SDS011;26174;42.908;23.800;2022-09-30T00:33:38;1.33;;;0.52;;
40471;SDS011;26174;42.908;23.800;2022-09-30T00:36:05;0.17;;;0.17;;
40471;SDS011;26174;42.908;23.800;2022-09-30T00:38:31;0.30;;;0.30;;
40471;SDS011;26174;42.908;23.800;2022-09-30T00:40:57;0.10;;;0.10;;
40471;SDS011;26174;42.908;23.800;2022-09-30T00:46:08;0.43;;;0.43;;
40471;SDS011;26174;42.908;23.800;2022-09-30T00:48:56;1.45;;;0.85;;
40471;SDS011;26174;42.908;23.800;2022-09-30T00:51:26;0.73;;;0.35;;
40471;SDS011;26174;42.908;23.800;2022-09-30T00:53:57;0.93;;;0.40;;
40471;SDS011;26174;42.908;23.800;2022-09-30T00:56:29;0.98;;;0.63;;
40471;SDS011;26174;42.908;23.800;2022-09-30T01:01:40;0.47;;;0.28;;
40471;SDS011;26174;42.908;23.800;2022-09-30T01:04:10;0.32;;;0.20;;
40471;SDS011;26174;42.908;23.800;2022-09-30T01:06:39;0.98;;;0.65;;
40471;SDS011;26174;42.908;23.800;2022-09-30T01:09:05;1.13;;;0.75;;
40471;SDS011;26174;42.908;23.800;2022-09-30T01:11:31;0.55;;;0.50;;
40471;SDS011;26174;42.908;23.800;2022-09-30T01:14:01;0.43;;;0.43;;
40471;SDS011;26174;42.908;23.800;2022-09-30T01:21:53;0.88;;;0.63;;
40471;SDS011;26174;42.908;23.800;2022-09-30T01:41:03;1.27;;;1.17;;
40471;SDS011;26174;42.908;23.800;2022-09-30T01:51:57;3.50;;;0.80;;
40471;SDS011;26174;42.908;23.800;2022-09-30T01:54:36;1.25;;;0.47;;
40471;SDS011;26174;42.908;23.800;2022-09-30T01:57:12;0.90;;;0.65;;
40471;SDS011;26174;42.908;23.800;2022-09-30T01:59:47;0.50;;;0.40;;
40471;SDS011;26174;42.908;23.800;2022-09-30T02:02:21;0.30;;;0.30;;
40471;SDS011;26174;42.908;23.800;2022-09-30T02:05:04;0.38;;;0.38;;
40471;SDS011;26174;42.908;23.800;2022-09-30T02:07:46;0.60;;;0.60;;
40471;SDS011;26174;42.908;23.800;2022-09-30T02:10:43;0.68;;;0.68;;
40471;SDS011;26174;42.908;23.800;2022-09-30T02:13:23;0.35;;;0.15;;
40471;SDS011;26174;42.908;23.800;2022-09-30T02:15:55;1.48;;;0.95;;
40471;SDS011;26174;42.908;23.800;2022-09-30T02:18:30;1.13;;;1.05;;
40471;SDS011;26174;42.908;23.800;2022-09-30T02:21:00;0.60;;;0.60;;
40471;SDS011;26174;42.908;23.800;2022-09-30T02:23:29;0.82;;;0.30;;
40471;SDS011;26174;42.908;23.800;2022-09-30T02:25:59;0.38;;;0.38;;
40471;SDS011;26174;42.908;23.800;2022-09-30T02:28:31;1.83;;;1.13;;
40471;SDS011;26174;42.908;23.800;2022-09-30T02:30:58;0.77;;;0.55;;
40471;SDS011;26174;42.908;23.800;2022-09-30T02:33:35;0.90;;;0.52;;
40471;SDS011;26174;42.908;23.800;2022-09-30T02:36:08;1.10;;;0.75;;
40471;SDS011;26174;42.908;23.800;2022-09-30T02:38:45;0.85;;;0.43;;
40471;SDS011;26174;42.908;23.800;2022-09-30T02:41:23;0.70;;;0.40;;
40471;SDS011;26174;42.908;23.800;2022-09-30T02:43:50;3.40;;;1.00;;
40471;SDS011;26174;42.908;23.800;2022-09-30T02:47:03;0.95;;;0.35;;
40471;SDS011;26174;42.908;23.800;2022-09-30T02:54:51;0.82;;;0.35;;
40471;SDS011;26174;42.908;23.800;2022-09-30T02:57:33;0.52;;;0.50;;
40471;SDS011;26174;42.908;23.800;2022-09-30T03:00:18;1.55;;;1.17;;
40471;SDS011;26174;42.908;23.800;2022-09-30T03:02:43;1.23;;;1.17;;
40471;SDS011;26174;42.908;23.800;2022-09-30T03:05:09;1.67;;;1.10;;
40471;SDS011;26174;42.908;23.800;2022-09-30T03:07:36;2.05;;;0.98;;
40471;SDS011;26174;42.908;23.800;2022-09-30T03:10:10;0.73;;;0.55;;
40471;SDS011;26174;42.908;23.800;2022-09-30T03:26:36;2.33;;;0.65;;
40471;SDS011;26174;42.908;23.800;2022-09-30T03:37:03;0.80;;;0.70;;
40471;SDS011;26174;42.908;23.800;2022-09-30T03:39:57;1.23;;;0.98;;
40471;SDS011;26174;42.908;23.800;2022-09-30T03:42:28;1.13;;;1.02;;
40471;SDS011;26174;42.908;23.800;2022-09-30T03:47:50;1.02;;;0.77;;
40471;SDS011;26174;42.908;23.800;2022-09-30T03:50:18;1.30;;;1.20;;
40471;SDS011;26174;42.908;23.800;2022-09-30T03:52:45;0.77;;;0.65;;
40471;SDS011;26174;42.908;23.800;2022-09-30T03:55:12;2.38;;;1.00;;
40471;SDS011;26174;42.908;23.800;2022-09-30T03:57:37;4.25;;;1.70;;
40471;SDS011;26174;42.908;23.800;2022-09-30T04:00:04;2.17;;;1.40;;
40471;SDS011;26174;42.908;23.800;2022-09-30T04:02:31;1.05;;;0.95;;
40471;SDS011;26174;42.908;23.800;2022-09-30T04:04:56;0.77;;;0.77;;
40471;SDS011;26174;42.908;23.800;2022-09-30T04:07:23;3.00;;;1.10;;
40471;SDS011;26174;42.908;23.800;2022-09-30T04:09:48;2.13;;;1.92;;
40471;SDS011;26174;42.908;23.800;2022-09-30T04:12:14;1.67;;;0.93;;
40471;SDS011;26174;42.908;23.800;2022-09-30T04:14:40;0.52;;;0.52;;
40471;SDS011;26174;42.908;23.800;2022-09-30T04:17:05;1.50;;;1.35;;
40471;SDS011;26174;42.908;23.800;2022-09-30T04:19:31;3.00;;;1.58;;
40471;SDS011;26174;42.908;23.800;2022-09-30T04:22:02;32.67;;;2.55;;
40471;SDS011;26174;42.908;23.800;2022-09-30T04:24:28;4.18;;;1.33;;
40471;SDS011;26174;42.908;23.800;2022-09-30T04:26:53;2.10;;;0.80;;
40471;SDS011;26174;42.908;23.800;2022-09-30T04:29:19;4.70;;;1.08;;
40471;SDS011;26174;42.908;23.800;2022-09-30T04:31:44;1.88;;;1.15;;
40471;SDS011;26174;42.908;23.800;2022-09-30T04:34:10;5.15;;;1.02;;
40471;SDS011;26174;42.908;23.800;2022-09-30T04:36:36;1.23;;;0.82;;
40471;SDS011;26174;42.908;23.800;2022-09-30T04:39:02;2.25;;;1.23;;
40471;SDS011;26174;42.908;23.800;2022-09-30T04:41:28;1.33;;;1.08;;
40471;SDS011;26174;42.908;23.800;2022-09-30T04:43:53;2.78;;;1.67;;
40471;SDS011;26174;42.908;23.800;2022-09-30T04:46:20;3.75;;;1.38;;
40471;SDS011;26174;42.908;23.800;2022-09-30T04:48:47;1.45;;;1.35;;
40471;SDS011;26174;42.908;23.800;2022-09-30T04:51:13;1.80;;;0.63;;
40471;SDS011;26174;42.908;23.800;2022-09-30T04:53:40;0.82;;;0.68;;
40471;SDS011;26174;42.908;23.800;2022-09-30T04:56:05;1.13;;;1.02;;
40471;SDS011;26174;42.908;23.800;2022-09-30T04:58:32;1.25;;;1.15;;
40471;SDS011;26174;42.908;23.800;2022-09-30T05:01:04;1.17;;;0.70;;
40471;SDS011;26174;42.908;23.800;2022-09-30T05:03:31;7.57;;;2.83;;
40471;SDS011;26174;42.908;23.800;2022-09-30T05:05:57;14.68;;;2.17;;
40471;SDS011;26174;42.908;23.800;2022-09-30T05:08:23;1.42;;;1.33;;
40471;SDS011;26174;42.908;23.800;2022-09-30T05:10:55;2.08;;;1.83;;
40471;SDS011;26174;42.908;23.800;2022-09-30T05:13:22;3.47;;;2.30;;
40471;SDS011;26174;42.908;23.800;2022-09-30T05:15:56;2.83;;;1.15;;
40471;SDS011;26174;42.908;23.800;2022-09-30T05:18:21;4.63;;;1.67;;
40471;SDS011;26174;42.908;23.800;2022-09-30T05:20:48;1.55;;;1.45;;
40471;SDS011;26174;42.908;23.800;2022-09-30T05:23:14;2.15;;;1.60;;
40471;SDS011;26174;42.908;23.800;2022-09-30T05:25:40;1.65;;;1.55;;
40471;SDS011;26174;42.908;23.800;2022-09-30T05:28:06;1.88;;;1.35;;
40471;SDS011;26174;42.908;23.800;2022-09-30T05:30:32;2.90;;;1.60;;
40471;SDS011;26174;42.908;23.800;2022-09-30T05:32:58;1.67;;;1.58;;
40471;SDS011;26174;42.908;23.800;2022-09-30T05:35:23;1.45;;;1.35;;
40471;SDS011;26174;42.908;23.800;2022-09-30T05:37:49;1.17;;;1.13;;
40471;SDS011;26174;42.908;23.800;2022-09-30T05:40:14;0.73;;;0.73;;
40471;SDS011;26174;42.908;23.800;2022-09-30T05:42:40;1.77;;;1.55;;
40471;SDS011;26174;42.908;23.800;2022-09-30T05:45:06;2.88;;;1.35;;
40471;SDS011;26174;42.908;23.800;2022-09-30T05:47:32;2.30;;;1.33;;
40471;SDS011;26174;42.908;23.800;2022-09-30T05:49:58;1.40;;;1.23;;
40471;SDS011;26174;42.908;23.800;2022-09-30T05:52:24;4.18;;;2.28;;
40471;SDS011;26174;42.908;23.800;2022-09-30T05:54:49;2.03;;;1.05;;
40471;SDS011;26174;42.908;23.800;2022-09-30T05:57:15;0.90;;;0.65;;
40471;SDS011;26174;42.908;23.800;2022-09-30T05:59:41;7.55;;;1.92;;
40471;SDS011;26174;42.908;23.800;2022-09-30T06:02:08;0.45;;;0.45;;
40471;SDS011;26174;42.908;23.800;2022-09-30T06:04:34;1.85;;;1.23;;
40471;SDS011;26174;42.908;23.800;2022-09-30T06:07:00;2.47;;;2.03;;
40471;SDS011;26174;42.908;23.800;2022-09-30T06:09:25;2.88;;;2.10;;
40471;SDS011;26174;42.908;23.800;2022-09-30T06:11:51;1.80;;;1.25;;
40471;SDS011;26174;42.908;23.800;2022-09-30T06:14:17;2.45;;;1.85;;
40471;SDS011;26174;42.908;23.800;2022-09-30T06:16:44;1.80;;;1.33;;
40471;SDS011;26174;42.908;23.800;2022-09-30T06:19:10;2.85;;;1.77;;
40471;SDS011;26174;42.908;23.800;2022-09-30T06:21:35;1.30;;;1.20;;
40471;SDS011;26174;42.908;23.800;2022-09-30T06:24:01;1.27;;;1.17;;
40471;SDS011;26174;42.908;23.800;2022-09-30T06:26:27;13.75;;;9.85;;
40471;SDS011;26174;42.908;23.800;2022-09-30T06:28:52;17.10;;;10.63;;
40471;SDS011;26174;42.908;23.800;2022-09-30T06:31:18;17.58;;;9.75;;
40471;SDS011;26174;42.908;23.800;2022-09-30T06:33:44;11.88;;;9.73;;
40471;SDS011;26174;42.908;23.800;2022-09-30T06:36:10;20.50;;;11.70;;
40471;SDS011;26174;42.908;23.800;2022-09-30T06:38:36;17.67;;;11.63;;
40471;SDS011;26174;42.908;23.800;2022-09-30T06:41:03;19.02;;;12.63;;
40471;SDS011;26174;42.908;23.800;2022-09-30T06:43:29;13.73;;;10.07;;
40471;SDS011;26174;42.908;23.800;2022-09-30T06:45:55;15.10;;;9.23;;
40471;SDS011;26174;42.908;23.800;2022-09-30T06:48:21;13.70;;;9.48;;
40471;SDS011;26174;42.908;23.800;2022-09-30T06:50:47;11.40;;;8.90;;
40471;SDS011;26174;42.908;23.800;2022-09-30T06:53:13;14.15;;;10.00;;
40471;SDS011;26174;42.908;23.800;2022-09-30T06:55:38;17.85;;;8.07;;
40471;SDS011;26174;42.908;23.800;2022-09-30T06:58:05;14.75;;;8.13;;
40471;SDS011;26174;42.908;23.800;2022-09-30T07:00:35;18.52;;;10.57;;
40471;SDS011;26174;42.908;23.800;2022-09-30T07:03:01;13.32;;;8.15;;
40471;SDS011;26174;42.908;23.800;2022-09-30T07:05:30;8.13;;;5.28;;
40471;SDS011;26174;42.908;23.800;2022-09-30T07:07:55;17.50;;;6.35;;
40471;SDS011;26174;42.908;23.800;2022-09-30T07:10:21;11.00;;;5.97;;
40471;SDS011;26174;42.908;23.800;2022-09-30T07:12:53;6.47;;;5.03;;
40471;SDS011;26174;42.908;23.800;2022-09-30T07:15:19;28.13;;;12.05;;
40471;SDS011;26174;42.908;23.800;2022-09-30T07:17:53;20.23;;;8.57;;
40471;SDS011;26174;42.908;23.800;2022-09-30T07:20:20;12.80;;;6.85;;
40471;SDS011;26174;42.908;23.800;2022-09-30T07:22:46;13.80;;;6.75;;
40471;SDS011;26174;42.908;23.800;2022-09-30T07:25:12;11.73;;;6.13;;
40471;SDS011;26174;42.908;23.800;2022-09-30T07:27:39;12.52;;;8.27;;
40471;SDS011;26174;42.908;23.800;2022-09-30T07:30:05;20.05;;;9.48;;
40471;SDS011;26174;42.908;23.800;2022-09-30T07:32:31;7.45;;;5.07;;
40471;SDS011;26174;42.908;23.800;2022-09-30T07:34:56;13.65;;;5.15;;
40471;SDS011;26174;42.908;23.800;2022-09-30T07:37:23;17.40;;;7.10;;
40471;SDS011;26174;42.908;23.800;2022-09-30T07:39:49;10.60;;;5.65;;
40471;SDS011;26174;42.908;23.800;2022-09-30T07:42:15;11.18;;;5.70;;
40471;SDS011;26174;42.908;23.800;2022-09-30T07:44:45;12.43;;;5.32;;
40471;SDS011;26174;42.908;23.800;2022-09-30T07:47:11;13.82;;;6.38;;
40471;SDS011;26174;42.908;23.800;2022-09-30T07:49:39;13.60;;;6.15;;
40471;SDS011;26174;42.908;23.800;2022-09-30T07:52:06;7.57;;;4.57;;
40471;SDS011;26174;42.908;23.800;2022-09-30T07:54:32;12.30;;;5.22;;
40471;SDS011;26174;42.908;23.800;2022-09-30T07:56:59;9.05;;;3.60;;
40471;SDS011;26174;42.908;23.800;2022-09-30T07:59:26;5.93;;;3.20;;
40471;SDS011;26174;42.908;23.800;2022-09-30T08:01:53;5.57;;;2.92;;
40471;SDS011;26174;42.908;23.800;2022-09-30T08:04:19;2.53;;;2.15;;
40471;SDS011;26174;42.908;23.800;2022-09-30T08:06:47;2.35;;;2.10;;
40471;SDS011;26174;42.908;23.800;2022-09-30T08:09:15;2.40;;;2.15;;
40471;SDS011;26174;42.908;23.800;2022-09-30T08:11:42;4.13;;;2.10;;
40471;SDS011;26174;42.908;23.800;2022-09-30T08:14:11;6.72;;;3.40;;
40471;SDS011;26174;42.908;23.800;2022-09-30T08:16:38;6.85;;;3.88;;
40471;SDS011;26174;42.908;23.800;2022-09-30T08:19:04;5.88;;;2.78;;
40471;SDS011;26174;42.908;23.800;2022-09-30T08:21:29;10.45;;;3.28;;
40471;SDS011;26174;42.908;23.800;2022-09-30T08:23:55;4.03;;;2.17;;
40471;SDS011;26174;42.908;23.800;2022-09-30T08:26:21;8.98;;;2.42;;
40471;SDS011;26174;42.908;23.800;2022-09-30T08:28:47;9.25;;;3.47;;
40471;SDS011;26174;42.908;23.800;2022-09-30T08:31:14;12.15;;;2.97;;
40471;SDS011;26174;42.908;23.800;2022-09-30T08:33:41;2.47;;;1.92;;
40471;SDS011;26174;42.908;23.800;2022-09-30T08:36:11;1.55;;;1.45;;
40471;SDS011;26174;42.908;23.800;2022-09-30T08:38:40;4.00;;;1.90;;
40471;SDS011;26174;42.908;23.800;2022-09-30T08:49:58;2.10;;;1.50;;
40471;SDS011;26174;42.908;23.800;2022-09-30T08:52:33;1.80;;;1.38;;
40471;SDS011;26174;42.908;23.800;2022-09-30T08:55:04;2.50;;;1.33;;
40471;SDS011;26174;42.908;23.800;2022-09-30T08:57:35;6.60;;;2.50;;
40471;SDS011;26174;42.908;23.800;2022-09-30T09:00:04;9.27;;;2.15;;
40471;SDS011;26174;42.908;23.800;2022-09-30T09:20:16;2.97;;;1.40;;
40471;SDS011;26174;42.908;23.800;2022-09-30T09:22:44;1.63;;;1.20;;
40471;SDS011;26174;42.908;23.800;2022-09-30T09:25:12;6.38;;;1.40;;
40471;SDS011;26174;42.908;23.800;2022-09-30T09:27:50;2.15;;;1.50;;
40471;SDS011;26174;42.908;23.800;2022-09-30T09:30:20;1.88;;;1.27;;
40471;SDS011;26174;42.908;23.800;2022-09-30T09:32:56;9.15;;;2.13;;
40471;SDS011;26174;42.908;23.800;2022-09-30T09:46:43;5.30;;;1.77;;
40471;SDS011;26174;42.908;23.800;2022-09-30T09:54:31;6.03;;;1.92;;
40471;SDS011;26174;42.908;23.800;2022-09-30T09:57:07;3.63;;;1.52;;
40471;SDS011;26174;42.908;23.800;2022-09-30T09:59:33;6.00;;;1.60;;
40471;SDS011;26174;42.908;23.800;2022-09-30T10:01:59;3.20;;;1.75;;
40471;SDS011;26174;42.908;23.800;2022-09-30T10:04:26;1.60;;;1.30;;
40471;SDS011;26174;42.908;23.800;2022-09-30T10:06:57;4.72;;;1.40;;
40471;SDS011;26174;42.908;23.800;2022-09-30T10:09:34;1.77;;;1.00;;
40471;SDS011;26174;42.908;23.800;2022-09-30T10:14:29;1.10;;;1.00;;
40471;SDS011;26174;42.908;23.800;2022-09-30T10:16:59;1.45;;;1.25;;
40471;SDS011;26174;42.908;23.800;2022-09-30T10:19:26;1.60;;;1.50;;
40471;SDS011;26174;42.908;23.800;2022-09-30T10:24:36;2.72;;;1.80;;
40471;SDS011;26174;42.908;23.800;2022-09-30T10:27:03;3.92;;;1.70;;
40471;SDS011;26174;42.908;23.800;2022-09-30T10:29:33;3.55;;;1.40;;
40471;SDS011;26174;42.908;23.800;2022-09-30T10:32:00;3.40;;;1.47;;
40471;SDS011;26174;42.908;23.800;2022-09-30T10:34:31;2.33;;;1.38;;
40471;SDS011;26174;42.908;23.800;2022-09-30T10:37:06;2.63;;;2.42;;
40471;SDS011;26174;42.908;23.800;2022-09-30T10:39:34;3.55;;;2.55;;
40471;SDS011;26174;42.908;23.800;2022-09-30T10:44:40;1.92;;;1.45;;
40471;SDS011;26174;42.908;23.800;2022-09-30T10:47:07;3.78;;;1.83;;
40471;SDS011;26174;42.908;23.800;2022-09-30T10:49:44;4.60;;;1.70;;
40471;SDS011;26174;42.908;23.800;2022-09-30T10:52:17;8.60;;;2.20;;
40471;SDS011;26174;42.908;23.800;2022-09-30T10:54:51;2.38;;;1.50;;
40471;SDS011;26174;42.908;23.800;2022-09-30T10:59:46;2.65;;;1.65;;
40471;SDS011;26174;42.908;23.800;2022-09-30T11:02:24;3.15;;;1.85;;
40471;SDS011;26174;42.908;23.800;2022-09-30T11:07:30;1.90;;;1.40;;
40471;SDS011;26174;42.908;23.800;2022-09-30T11:13:03;2.80;;;1.65;;
40471;SDS011;26174;42.908;23.800;2022-09-30T11:18:21;8.38;;;5.07;;
40471;SDS011;26174;42.908;23.800;2022-09-30T11:20:54;11.70;;;3.30;;
40471;SDS011;26174;42.908;23.800;2022-09-30T11:38:14;4.22;;;2.00;;
40471;SDS011;26174;42.908;23.800;2022-09-30T11:40:30;8.38;;;2.13;;
40471;SDS011;26174;42.908;23.800;2022-09-30T11:43:07;2.70;;;2.08;;
40471;SDS011;26174;42.908;23.800;2022-09-30T11:45:55;4.93;;;2.15;;
40471;SDS011;26174;42.908;23.800;2022-09-30T11:59:28;3.25;;;2.20;;
40471;SDS011;26174;42.908;23.800;2022-09-30T12:01:58;12.73;;;7.60;;
40471;SDS011;26174;42.908;23.800;2022-09-30T12:04:37;7.40;;;3.63;;
40471;SDS011;26174;42.908;23.800;2022-09-30T12:07:13;6.75;;;3.70;;
40471;SDS011;26174;42.908;23.800;2022-09-30T12:09:52;5.40;;;2.42;;
40471;SDS011;26174;42.908;23.800;2022-09-30T12:12:21;5.05;;;2.95;;
40471;SDS011;26174;42.908;23.800;2022-09-30T12:17:29;5.00;;;3.50;;
40471;SDS011;26174;42.908;23.800;2022-09-30T12:20:02;9.13;;;3.08;;
40471;SDS011;26174;42.908;23.800;2022-09-30T12:22:31;5.50;;;3.10;;
40471;SDS011;26174;42.908;23.800;2022-09-30T12:25:10;6.88;;;3.13;;
40471;SDS011;26174;42.908;23.800;2022-09-30T12:27:52;4.88;;;2.70;;
40471;SDS011;26174;42.908;23.800;2022-09-30T12:30:21;3.65;;;2.28;;
40471;SDS011;26174;42.908;23.800;2022-09-30T12:47:21;6.10;;;3.50;;
40471;SDS011;26174;42.908;23.800;2022-09-30T12:49:55;8.65;;;5.95;;
40471;SDS011;26174;42.908;23.800;2022-09-30T12:52:23;4.35;;;2.47;;
40471;SDS011;26174;42.908;23.800;2022-09-30T12:54:59;5.97;;;5.15;;
40471;SDS011;26174;42.908;23.800;2022-09-30T12:57:30;3.30;;;2.30;;
40471;SDS011;26174;42.908;23.800;2022-09-30T13:00:05;10.75;;;7.97;;
40471;SDS011;26174;42.908;23.800;2022-09-30T13:02:39;6.80;;;3.13;;
40471;SDS011;26174;42.908;23.800;2022-09-30T13:10:46;7.57;;;5.13;;
40471;SDS011;26174;42.908;23.800;2022-09-30T13:13:25;3.17;;;2.40;;
40471;SDS011;26174;42.908;23.800;2022-09-30T13:16:00;12.52;;;8.57;;
40471;SDS011;26174;42.908;23.800;2022-09-30T13:21:01;7.15;;;2.88;;
40471;SDS011;26174;42.908;23.800;2022-09-30T13:23:46;7.93;;;5.63;;
40471;SDS011;26174;42.908;23.800;2022-09-30T13:28:46;6.18;;;3.80;;
40471;SDS011;26174;42.908;23.800;2022-09-30T13:31:14;25.20;;;19.83;;
40471;SDS011;26174;42.908;23.800;2022-09-30T13:36:30;7.10;;;3.10;;
40471;SDS011;26174;42.908;23.800;2022-09-30T13:41:32;2.60;;;1.83;;
40471;SDS011;26174;42.908;23.800;2022-09-30T13:44:13;15.85;;;10.18;;
40471;SDS011;26174;42.908;23.800;2022-09-30T13:46:58;5.55;;;2.83;;
40471;SDS011;26174;42.908;23.800;2022-09-30T13:49:32;4.78;;;2.05;;
40471;SDS011;26174;42.908;23.800;2022-09-30T13:52:21;2.58;;;1.60;;
40471;SDS011;26174;42.908;23.800;2022-09-30T13:54:51;4.45;;;3.10;;
40471;SDS011;26174;42.908;23.800;2022-09-30T13:57:24;8.43;;;5.10;;
40471;SDS011;26174;42.908;23.800;2022-09-30T14:03:05;7.10;;;4.53;;
40471;SDS011;26174;42.908;23.800;2022-09-30T14:05:48;3.13;;;2.13;;
40471;SDS011;26174;42.908;23.800;2022-09-30T14:13:35;10.75;;;6.68;;
40471;SDS011;26174;42.908;23.800;2022-09-30T14:16:29;12.75;;;10.57;;
40471;SDS011;26174;42.908;23.800;2022-09-30T14:19:22;2.90;;;2.10;;
40471;SDS011;26174;42.908;23.800;2022-09-30T14:22:02;4.85;;;3.72;;
40471;SDS011;26174;42.908;23.800;2022-09-30T14:24:32;6.85;;;2.50;;
40471;SDS011;26174;42.908;23.800;2022-09-30T14:30:08;3.10;;;1.83;;
40471;SDS011;26174;42.908;23.800;2022-09-30T14:35:20;5.30;;;2.50;;
40471;SDS011;26174;42.908;23.800;2022-09-30T14:37:51;3.08;;;2.30;;
40471;SDS011;26174;42.908;23.800;2022-09-30T14:40:37;5.10;;;2.70;;
40471;SDS011;26174;42.908;23.800;2022-09-30T14:43:11;6.63;;;2.63;;
40471;SDS011;26174;42.908;23.800;2022-09-30T14:45:41;6.45;;;2.78;;
40471;SDS011;26174;42.908;23.800;2022-09-30T14:48:10;7.50;;;5.05;;
40471;SDS011;26174;42.908;23.800;2022-09-30T14:50:58;2.40;;;2.20;;
40471;SDS011;26174;42.908;23.800;2022-09-30T14:53:28;3.30;;;2.30;;
40471;SDS011;26174;42.908;23.800;2022-09-30T14:55:55;4.68;;;1.95;;
40471;SDS011;26174;42.908;23.800;2022-09-30T15:03:46;5.80;;;2.60;;
40471;SDS011;26174;42.908;23.800;2022-09-30T15:06:18;7.22;;;4.13;;
40471;SDS011;26174;42.908;23.800;2022-09-30T15:08:45;4.30;;;2.13;;
40471;SDS011;26174;42.908;23.800;2022-09-30T15:11:22;5.78;;;3.55;;
40471;SDS011;26174;42.908;23.800;2022-09-30T15:13:57;2.60;;;2.38;;
40471;SDS011;26174;42.908;23.800;2022-09-30T15:16:24;2.67;;;2.20;;
40471;SDS011;26174;42.908;23.800;2022-09-30T15:18:51;9.68;;;3.78;;
40471;SDS011;26174;42.908;23.800;2022-09-30T15:21:18;7.10;;;4.15;;
40471;SDS011;26174;42.908;23.800;2022-09-30T15:23:45;11.00;;;5.05;;
40471;SDS011;26174;42.908;23.800;2022-09-30T15:26:15;13.38;;;8.13;;
40471;SDS011;26174;42.908;23.800;2022-09-30T15:28:42;6.57;;;5.15;;
40471;SDS011;26174;42.908;23.800;2022-09-30T15:31:12;8.43;;;4.20;;
40471;SDS011;26174;42.908;23.800;2022-09-30T15:33:46;11.02;;;3.50;;
40471;SDS011;26174;42.908;23.800;2022-09-30T15:36:15;13.20;;;3.85;;
40471;SDS011;26174;42.908;23.800;2022-09-30T15:38:49;13.60;;;6.40;;
40471;SDS011;26174;42.908;23.800;2022-09-30T15:41:15;12.38;;;4.65;;
40471;SDS011;26174;42.908;23.800;2022-09-30T15:43:45;8.35;;;2.78;;
40471;SDS011;26174;42.908;23.800;2022-09-30T15:48:42;8.77;;;2.75;;
40471;SDS011;26174;42.908;23.800;2022-09-30T15:51:24;17.05;;;7.28;;
40471;SDS011;26174;42.908;23.800;2022-09-30T15:53:50;8.73;;;3.25;;
40471;SDS011;26174;42.908;23.800;2022-09-30T15:56:29;3.90;;;2.47;;
40471;SDS011;26174;42.908;23.800;2022-09-30T15:59:04;3.50;;;2.38;;
40471;SDS011;26174;42.908;23.800;2022-09-30T16:01:37;4.05;;;2.60;;
40471;SDS011;26174;42.908;23.800;2022-09-30T16:06:50;5.65;;;3.30;;
40471;SDS011;26174;42.908;23.800;2022-09-30T16:17:04;11.10;;;5.50;;
40471;SDS011;26174;42.908;23.800;2022-09-30T16:19:31;10.43;;;4.70;;
40471;SDS011;26174;42.908;23.800;2022-09-30T16:21:58;12.00;;;4.60;;
40471;SDS011;26174;42.908;23.800;2022-09-30T16:27:15;10.00;;;5.03;;
40471;SDS011;26174;42.908;23.800;2022-09-30T16:29:55;12.15;;;7.13;;
40471;SDS011;26174;42.908;23.800;2022-09-30T16:32:22;5.22;;;3.03;;
40471;SDS011;26174;42.908;23.800;2022-09-30T16:34:48;5.30;;;2.60;;
40471;SDS011;26174;42.908;23.800;2022-09-30T16:37:16;7.70;;;3.92;;
40471;SDS011;26174;42.908;23.800;2022-09-30T16:39:43;10.68;;;5.43;;
40471;SDS011;26174;42.908;23.800;2022-09-30T16:42:10;10.82;;;4.55;;
40471;SDS011;26174;42.908;23.800;2022-09-30T16:44:37;5.60;;;3.70;;
40471;SDS011;26174;42.908;23.800;2022-09-30T16:47:02;13.32;;;4.65;;
40471;SDS011;26174;42.908;23.800;2022-09-30T16:49:28;7.70;;;3.78;;
40471;SDS011;26174;42.908;23.800;2022-09-30T16:51:54;10.55;;;4.70;;
40471;SDS011;26174;42.908;23.800;2022-09-30T16:54:19;57.30;;;19.38;;
40471;SDS011;26174;42.908;23.800;2022-09-30T16:56:45;55.45;;;20.80;;
40471;SDS011;26174;42.908;23.800;2022-09-30T16:59:11;55.97;;;19.23;;
40471;SDS011;26174;42.908;23.800;2022-09-30T17:01:38;168.75;;;52.45;;
40471;SDS011;26174;42.908;23.800;2022-09-30T17:04:04;72.80;;;21.83;;
40471;SDS011;26174;42.908;23.800;2022-09-30T17:06:31;31.02;;;9.88;;
40471;SDS011;26174;42.908;23.800;2022-09-30T17:08:57;46.13;;;14.45;;
40471;SDS011;26174;42.908;23.800;2022-09-30T17:11:25;42.78;;;14.65;;
40471;SDS011;26174;42.908;23.800;2022-09-30T17:13:57;40.83;;;14.40;;
40471;SDS011;26174;42.908;23.800;2022-09-30T17:16:23;28.90;;;9.10;;
40471;SDS011;26174;42.908;23.800;2022-09-30T17:18:49;17.63;;;7.47;;
40471;SDS011;26174;42.908;23.800;2022-09-30T17:21:16;17.02;;;7.53;;
40471;SDS011;26174;42.908;23.800;2022-09-30T17:23:42;16.73;;;6.00;;
40471;SDS011;26174;42.908;23.800;2022-09-30T17:26:07;15.52;;;6.45;;
40471;SDS011;26174;42.908;23.800;2022-09-30T17:28:34;23.05;;;7.53;;
40471;SDS011;26174;42.908;23.800;2022-09-30T17:31:00;21.08;;;6.03;;
40471;SDS011;26174;42.908;23.800;2022-09-30T17:33:30;18.67;;;6.07;;
40471;SDS011;26174;42.908;23.800;2022-09-30T17:36:00;13.88;;;5.45;;
40471;SDS011;26174;42.908;23.800;2022-09-30T17:38:29;16.55;;;5.90;;
40471;SDS011;26174;42.908;23.800;2022-09-30T17:40:54;20.20;;;6.20;;
40471;SDS011;26174;42.908;23.800;2022-09-30T17:43:38;14.25;;;6.05;;
40471;SDS011;26174;42.908;23.800;2022-09-30T17:46:04;37.80;;;12.35;;
40471;SDS011;26174;42.908;23.800;2022-09-30T17:48:30;30.60;;;10.60;;
40471;SDS011;26174;42.908;23.800;2022-09-30T17:50:56;55.53;;;14.88;;
40471;SDS011;26174;42.908;23.800;2022-09-30T17:53:22;35.25;;;11.98;;
40471;SDS011;26174;42.908;23.800;2022-09-30T17:55:48;43.03;;;12.70;;
40471;SDS011;26174;42.908;23.800;2022-09-30T17:58:24;30.92;;;10.93;;
40471;SDS011;26174;42.908;23.800;2022-09-30T18:00:50;34.13;;;12.15;;
40471;SDS011;26174;42.908;23.800;2022-09-30T18:03:16;31.98;;;9.32;;
40471;SDS011;26174;42.908;23.800;2022-09-30T18:05:41;41.38;;;12.60;;
40471;SDS011;26174;42.908;23.800;2022-09-30T18:08:10;27.35;;;10.73;;
40471;SDS011;26174;42.908;23.800;2022-09-30T18:10:36;30.13;;;9.63;;
40471;SDS011;26174;42.908;23.800;2022-09-30T18:13:02;23.70;;;9.90;;
40471;SDS011;26174;42.908;23.800;2022-09-30T18:15:27;22.73;;;9.07;;
40471;SDS011;26174;42.908;23.800;2022-09-30T18:17:53;19.10;;;8.32;;
40471;SDS011;26174;42.908;23.800;2022-09-30T18:20:19;20.60;;;8.57;;
40471;SDS011;26174;42.908;23.800;2022-09-30T18:22:45;63.97;;;33.50;;
40471;SDS011;26174;42.908;23.800;2022-09-30T18:25:10;18.55;;;8.50;;
40471;SDS011;26174;42.908;23.800;2022-09-30T18:27:52;24.20;;;10.88;;